sensor_id;sensor_type;location;lat;lon;timestamp;P1;durP1;ratioP1;P2;durP2;ratioP2
58760;SDS011;44529;47.464;19.014;2023-04-03T00:02:48;6.05;;;5.45;;
58760;SDS011;44529;47.464;19.014;2023-04-03T00:05:51;7.03;;;5.47;;
58760;SDS011;44529;47.464;19.014;2023-04-03T00:08:54;5.68;;;5.18;;
58760;SDS011;44529;47.464;19.014;2023-04-03T00:11:56;6.62;;;5.72;;
58760;SDS011;44529;47.464;19.014;2023-04-03T00:14:58;6.55;;;5.87;;
58760;SDS011;44529;47.464;19.014;2023-04-03T00:18:01;7.50;;;5.80;;
58760;SDS011;44529;47.464;19.014;2023-04-03T00:21:04;6.65;;;5.57;;
58760;SDS011;44529;47.464;19.014;2023-04-03T00:24:07;6.65;;;6.03;;
58760;SDS011;44529;47.464;19.014;2023-04-03T00:27:09;5.70;;;5.20;;
58760;SDS011;44529;47.464;19.014;2023-04-03T00:30:14;6.18;;;5.47;;
58760;SDS011;44529;47.464;19.014;2023-04-03T00:33:18;6.05;;;5.15;;
58760;SDS011;44529;47.464;19.014;2023-04-03T00:36:24;6.85;;;5.82;;
58760;SDS011;44529;47.464;19.014;2023-04-03T00:39:26;6.05;;;5.45;;
58760;SDS011;44529;47.464;19.014;2023-04-03T00:42:28;6.55;;;5.47;;
58760;SDS011;44529;47.464;19.014;2023-04-03T00:45:33;6.78;;;5.80;;
58760;SDS011;44529;47.464;19.014;2023-04-03T00:48:46;5.90;;;5.40;;
58760;SDS011;44529;47.464;19.014;2023-04-03T00:51:49;6.12;;;5.25;;
58760;SDS011;44529;47.464;19.014;2023-04-03T00:54:53;5.57;;;4.82;;
58760;SDS011;44529;47.464;19.014;2023-04-03T00:57:58;5.82;;;5.32;;
58760;SDS011;44529;47.464;19.014;2023-04-03T01:01:03;6.60;;;5.78;;
58760;SDS011;44529;47.464;19.014;2023-04-03T01:07:30;5.65;;;4.95;;
58760;SDS011;44529;47.464;19.014;2023-04-03T01:10:35;5.60;;;5.10;;
58760;SDS011;44529;47.464;19.014;2023-04-03T01:13:37;5.78;;;5.28;;
58760;SDS011;44529;47.464;19.014;2023-04-03T01:16:40;6.30;;;5.70;;
58760;SDS011;44529;47.464;19.014;2023-04-03T01:19:42;5.50;;;5.00;;
58760;SDS011;44529;47.464;19.014;2023-04-03T01:26:11;5.75;;;5.20;;
58760;SDS011;44529;47.464;19.014;2023-04-03T01:29:14;5.50;;;5.00;;
58760;SDS011;44529;47.464;19.014;2023-04-03T01:32:17;5.37;;;4.87;;
58760;SDS011;44529;47.464;19.014;2023-04-03T01:35:19;6.12;;;5.53;;
58760;SDS011;44529;47.464;19.014;2023-04-03T01:38:22;6.35;;;5.40;;
58760;SDS011;44529;47.464;19.014;2023-04-03T01:41:24;6.32;;;5.72;;
58760;SDS011;44529;47.464;19.014;2023-04-03T01:44:28;6.22;;;5.62;;
58760;SDS011;44529;47.464;19.014;2023-04-03T01:47:30;5.85;;;5.18;;
58760;SDS011;44529;47.464;19.014;2023-04-03T01:50:33;5.75;;;5.22;;
58760;SDS011;44529;47.464;19.014;2023-04-03T01:53:36;5.97;;;5.07;;
58760;SDS011;44529;47.464;19.014;2023-04-03T01:56:38;6.12;;;4.70;;
58760;SDS011;44529;47.464;19.014;2023-04-03T01:59:42;5.55;;;4.75;;
58760;SDS011;44529;47.464;19.014;2023-04-03T02:02:44;6.32;;;4.72;;
58760;SDS011;44529;47.464;19.014;2023-04-03T02:05:48;4.87;;;4.37;;
58760;SDS011;44529;47.464;19.014;2023-04-03T02:08:51;5.03;;;4.53;;
58760;SDS011;44529;47.464;19.014;2023-04-03T02:11:53;4.90;;;4.50;;
58760;SDS011;44529;47.464;19.014;2023-04-03T02:14:55;5.03;;;4.50;;
58760;SDS011;44529;47.464;19.014;2023-04-03T02:17:58;4.40;;;4.00;;
58760;SDS011;44529;47.464;19.014;2023-04-03T02:21:00;4.50;;;4.10;;
58760;SDS011;44529;47.464;19.014;2023-04-03T02:24:03;5.40;;;4.03;;
58760;SDS011;44529;47.464;19.014;2023-04-03T02:27:05;5.43;;;4.45;;
58760;SDS011;44529;47.464;19.014;2023-04-03T02:30:08;4.87;;;4.37;;
58760;SDS011;44529;47.464;19.014;2023-04-03T02:33:12;6.05;;;4.20;;
58760;SDS011;44529;47.464;19.014;2023-04-03T02:36:15;4.65;;;4.25;;
58760;SDS011;44529;47.464;19.014;2023-04-03T02:39:18;4.55;;;4.15;;
58760;SDS011;44529;47.464;19.014;2023-04-03T02:42:21;4.70;;;4.30;;
58760;SDS011;44529;47.464;19.014;2023-04-03T02:45:23;4.62;;;4.20;;
58760;SDS011;44529;47.464;19.014;2023-04-03T02:48:26;4.20;;;3.87;;
58760;SDS011;44529;47.464;19.014;2023-04-03T02:51:28;5.57;;;4.18;;
58760;SDS011;44529;47.464;19.014;2023-04-03T02:54:31;5.12;;;4.32;;
58760;SDS011;44529;47.464;19.014;2023-04-03T02:57:33;4.55;;;4.15;;
58760;SDS011;44529;47.464;19.014;2023-04-03T03:00:36;5.80;;;4.00;;
58760;SDS011;44529;47.464;19.014;2023-04-03T03:03:39;4.47;;;4.07;;
58760;SDS011;44529;47.464;19.014;2023-04-03T03:06:42;4.50;;;4.03;;
58760;SDS011;44529;47.464;19.014;2023-04-03T03:09:45;4.37;;;3.90;;
58760;SDS011;44529;47.464;19.014;2023-04-03T03:12:48;4.43;;;4.03;;
58760;SDS011;44529;47.464;19.014;2023-04-03T03:15:51;4.22;;;3.83;;
58760;SDS011;44529;47.464;19.014;2023-04-03T03:18:53;4.87;;;4.00;;
58760;SDS011;44529;47.464;19.014;2023-04-03T03:21:57;4.37;;;3.97;;
58760;SDS011;44529;47.464;19.014;2023-04-03T03:24:59;4.93;;;4.43;;
58760;SDS011;44529;47.464;19.014;2023-04-03T03:28:02;4.30;;;3.90;;
58760;SDS011;44529;47.464;19.014;2023-04-03T03:31:05;4.35;;;3.95;;
58760;SDS011;44529;47.464;19.014;2023-04-03T03:34:09;4.28;;;3.85;;
58760;SDS011;44529;47.464;19.014;2023-04-03T03:37:12;5.82;;;4.35;;
58760;SDS011;44529;47.464;19.014;2023-04-03T03:40:15;4.62;;;4.22;;
58760;SDS011;44529;47.464;19.014;2023-04-03T03:43:19;5.15;;;4.55;;
58760;SDS011;44529;47.464;19.014;2023-04-03T03:46:22;6.68;;;4.18;;
58760;SDS011;44529;47.464;19.014;2023-04-03T03:49:27;4.25;;;3.85;;
58760;SDS011;44529;47.464;19.014;2023-04-03T03:52:29;4.82;;;4.28;;
58760;SDS011;44529;47.464;19.014;2023-04-03T03:55:32;4.93;;;4.43;;
58760;SDS011;44529;47.464;19.014;2023-04-03T03:58:34;4.57;;;4.05;;
58760;SDS011;44529;47.464;19.014;2023-04-03T04:01:37;6.10;;;4.50;;
58760;SDS011;44529;47.464;19.014;2023-04-03T04:04:39;4.82;;;4.43;;
58760;SDS011;44529;47.464;19.014;2023-04-03T04:07:42;4.45;;;4.05;;
58760;SDS011;44529;47.464;19.014;2023-04-03T04:10:45;6.53;;;4.68;;
58760;SDS011;44529;47.464;19.014;2023-04-03T04:13:47;4.90;;;3.95;;
58760;SDS011;44529;47.464;19.014;2023-04-03T04:16:51;5.68;;;4.72;;
58760;SDS011;44529;47.464;19.014;2023-04-03T04:19:53;4.75;;;4.18;;
58760;SDS011;44529;47.464;19.014;2023-04-03T04:22:56;4.68;;;4.28;;
58760;SDS011;44529;47.464;19.014;2023-04-03T04:25:59;6.05;;;4.95;;
58760;SDS011;44529;47.464;19.014;2023-04-03T04:29:02;4.72;;;4.32;;
58760;SDS011;44529;47.464;19.014;2023-04-03T04:32:06;4.97;;;4.20;;
58760;SDS011;44529;47.464;19.014;2023-04-03T04:35:11;4.45;;;4.05;;
58760;SDS011;44529;47.464;19.014;2023-04-03T04:38:16;4.80;;;4.35;;
58760;SDS011;44529;47.464;19.014;2023-04-03T04:41:20;5.07;;;4.45;;
58760;SDS011;44529;47.464;19.014;2023-04-03T04:44:24;4.72;;;4.28;;
58760;SDS011;44529;47.464;19.014;2023-04-03T04:47:28;4.78;;;4.35;;
58760;SDS011;44529;47.464;19.014;2023-04-03T04:50:31;5.97;;;4.68;;
58760;SDS011;44529;47.464;19.014;2023-04-03T04:53:34;4.68;;;4.25;;
58760;SDS011;44529;47.464;19.014;2023-04-03T04:56:36;5.37;;;4.70;;
58760;SDS011;44529;47.464;19.014;2023-04-03T04:59:39;6.03;;;4.68;;
58760;SDS011;44529;47.464;19.014;2023-04-03T05:02:41;5.00;;;4.25;;
58760;SDS011;44529;47.464;19.014;2023-04-03T05:05:45;4.82;;;4.40;;
58760;SDS011;44529;47.464;19.014;2023-04-03T05:08:47;5.22;;;4.72;;
58760;SDS011;44529;47.464;19.014;2023-04-03T05:11:51;5.62;;;4.32;;
58760;SDS011;44529;47.464;19.014;2023-04-03T05:14:54;4.65;;;4.25;;
58760;SDS011;44529;47.464;19.014;2023-04-03T05:17:57;5.45;;;4.87;;
58760;SDS011;44529;47.464;19.014;2023-04-03T05:20:59;5.40;;;4.35;;
58760;SDS011;44529;47.464;19.014;2023-04-03T05:24:02;4.82;;;4.20;;
58760;SDS011;44529;47.464;19.014;2023-04-03T05:27:06;5.20;;;4.70;;
58760;SDS011;44529;47.464;19.014;2023-04-03T05:30:09;5.25;;;4.82;;
58760;SDS011;44529;47.464;19.014;2023-04-03T05:33:12;4.32;;;3.92;;
58760;SDS011;44529;47.464;19.014;2023-04-03T05:36:18;4.30;;;3.90;;
58760;SDS011;44529;47.464;19.014;2023-04-03T05:39:21;4.60;;;4.20;;
58760;SDS011;44529;47.464;19.014;2023-04-03T05:42:25;5.18;;;3.85;;
58760;SDS011;44529;47.464;19.014;2023-04-03T05:45:27;4.70;;;3.90;;
58760;SDS011;44529;47.464;19.014;2023-04-03T05:48:31;4.87;;;3.90;;
58760;SDS011;44529;47.464;19.014;2023-04-03T05:51:35;4.75;;;4.20;;
58760;SDS011;44529;47.464;19.014;2023-04-03T05:54:39;4.75;;;4.03;;
58760;SDS011;44529;47.464;19.014;2023-04-03T05:57:42;5.20;;;3.78;;
58760;SDS011;44529;47.464;19.014;2023-04-03T06:00:45;4.65;;;4.25;;
58760;SDS011;44529;47.464;19.014;2023-04-03T06:03:47;4.40;;;4.00;;
58760;SDS011;44529;47.464;19.014;2023-04-03T06:06:53;3.97;;;3.60;;
58760;SDS011;44529;47.464;19.014;2023-04-03T06:10:00;6.95;;;4.12;;
58760;SDS011;44529;47.464;19.014;2023-04-03T06:13:03;3.92;;;3.37;;
58760;SDS011;44529;47.464;19.014;2023-04-03T06:16:06;5.60;;;3.58;;
58760;SDS011;44529;47.464;19.014;2023-04-03T06:19:09;5.20;;;4.07;;
58760;SDS011;44529;47.464;19.014;2023-04-03T06:22:13;3.92;;;3.50;;
58760;SDS011;44529;47.464;19.014;2023-04-03T06:25:16;3.95;;;3.55;;
58760;SDS011;44529;47.464;19.014;2023-04-03T06:28:21;4.57;;;3.72;;
58760;SDS011;44529;47.464;19.014;2023-04-03T06:31:24;5.55;;;4.07;;
58760;SDS011;44529;47.464;19.014;2023-04-03T06:34:27;5.30;;;3.75;;
58760;SDS011;44529;47.464;19.014;2023-04-03T06:37:32;4.85;;;3.80;;
58760;SDS011;44529;47.464;19.014;2023-04-03T06:40:35;5.45;;;3.50;;
58760;SDS011;44529;47.464;19.014;2023-04-03T06:43:38;4.43;;;3.80;;
58760;SDS011;44529;47.464;19.014;2023-04-03T06:46:41;4.18;;;3.62;;
58760;SDS011;44529;47.464;19.014;2023-04-03T06:49:45;4.07;;;3.65;;
58760;SDS011;44529;47.464;19.014;2023-04-03T06:52:47;3.85;;;3.30;;
58760;SDS011;44529;47.464;19.014;2023-04-03T06:55:49;4.10;;;3.70;;
58760;SDS011;44529;47.464;19.014;2023-04-03T06:58:54;5.50;;;3.22;;
58760;SDS011;44529;47.464;19.014;2023-04-03T07:01:59;4.95;;;3.70;;
58760;SDS011;44529;47.464;19.014;2023-04-03T07:05:03;4.85;;;3.45;;
58760;SDS011;44529;47.464;19.014;2023-04-03T07:08:05;3.67;;;3.20;;
58760;SDS011;44529;47.464;19.014;2023-04-03T07:11:08;6.40;;;3.97;;
58760;SDS011;44529;47.464;19.014;2023-04-03T07:14:12;3.97;;;3.60;;
58760;SDS011;44529;47.464;19.014;2023-04-03T07:17:14;4.03;;;3.60;;
58760;SDS011;44529;47.464;19.014;2023-04-03T07:20:17;4.20;;;3.40;;
58760;SDS011;44529;47.464;19.014;2023-04-03T07:23:22;3.60;;;3.30;;
58760;SDS011;44529;47.464;19.014;2023-04-03T07:26:25;3.17;;;2.87;;
58760;SDS011;44529;47.464;19.014;2023-04-03T07:29:28;3.03;;;2.65;;
58760;SDS011;44529;47.464;19.014;2023-04-03T07:32:32;3.47;;;2.92;;
58760;SDS011;44529;47.464;19.014;2023-04-03T07:35:35;3.05;;;2.72;;
58760;SDS011;44529;47.464;19.014;2023-04-03T07:38:44;6.00;;;3.10;;
58760;SDS011;44529;47.464;19.014;2023-04-03T07:41:47;2.80;;;2.60;;
58760;SDS011;44529;47.464;19.014;2023-04-03T07:44:50;3.85;;;2.58;;
58760;SDS011;44529;47.464;19.014;2023-04-03T07:47:53;2.95;;;2.65;;
58760;SDS011;44529;47.464;19.014;2023-04-03T07:50:59;3.58;;;2.87;;
58760;SDS011;44529;47.464;19.014;2023-04-03T07:54:03;6.87;;;2.65;;
58760;SDS011;44529;47.464;19.014;2023-04-03T07:57:05;3.50;;;2.53;;
58760;SDS011;44529;47.464;19.014;2023-04-03T08:00:09;4.75;;;2.50;;
58760;SDS011;44529;47.464;19.014;2023-04-03T08:03:15;3.20;;;2.78;;
58760;SDS011;44529;47.464;19.014;2023-04-03T08:06:18;2.78;;;2.53;;
58760;SDS011;44529;47.464;19.014;2023-04-03T08:09:35;3.47;;;2.50;;
58760;SDS011;44529;47.464;19.014;2023-04-03T08:12:37;3.35;;;2.67;;
58760;SDS011;44529;47.464;19.014;2023-04-03T08:15:39;2.92;;;2.40;;
58760;SDS011;44529;47.464;19.014;2023-04-03T08:18:43;2.80;;;2.60;;
58760;SDS011;44529;47.464;19.014;2023-04-03T08:21:45;2.85;;;2.30;;
58760;SDS011;44529;47.464;19.014;2023-04-03T08:24:48;3.58;;;2.70;;
58760;SDS011;44529;47.464;19.014;2023-04-03T08:28:00;3.55;;;2.70;;
58760;SDS011;44529;47.464;19.014;2023-04-03T08:31:04;3.65;;;2.70;;
58760;SDS011;44529;47.464;19.014;2023-04-03T08:34:09;2.72;;;2.50;;
58760;SDS011;44529;47.464;19.014;2023-04-03T08:37:11;2.40;;;2.20;;
58760;SDS011;44529;47.464;19.014;2023-04-03T08:40:15;2.78;;;2.58;;
58760;SDS011;44529;47.464;19.014;2023-04-03T08:46:56;5.82;;;2.50;;
58760;SDS011;44529;47.464;19.014;2023-04-03T08:50:13;2.72;;;2.50;;
58760;SDS011;44529;47.464;19.014;2023-04-03T08:53:23;2.45;;;2.25;;
58760;SDS011;44529;47.464;19.014;2023-04-03T08:56:31;3.00;;;2.80;;
58760;SDS011;44529;47.464;19.014;2023-04-03T08:59:39;2.40;;;2.20;;
58760;SDS011;44529;47.464;19.014;2023-04-03T09:02:47;3.22;;;2.25;;
58760;SDS011;44529;47.464;19.014;2023-04-03T09:06:11;2.17;;;1.70;;
58760;SDS011;44529;47.464;19.014;2023-04-03T09:12:26;1.85;;;1.67;;
58760;SDS011;44529;47.464;19.014;2023-04-03T09:15:38;2.00;;;1.80;;
58760;SDS011;44529;47.464;19.014;2023-04-03T09:18:43;1.65;;;1.55;;
58760;SDS011;44529;47.464;19.014;2023-04-03T09:21:51;3.40;;;1.80;;
58760;SDS011;44529;47.464;19.014;2023-04-03T09:24:59;1.48;;;1.37;;
58760;SDS011;44529;47.464;19.014;2023-04-03T09:28:23;1.60;;;1.50;;
58760;SDS011;44529;47.464;19.014;2023-04-03T09:31:29;1.50;;;1.40;;
58760;SDS011;44529;47.464;19.014;2023-04-03T09:34:38;2.10;;;1.60;;
58760;SDS011;44529;47.464;19.014;2023-04-03T09:37:45;7.12;;;1.67;;
58760;SDS011;44529;47.464;19.014;2023-04-03T09:41:03;1.70;;;1.60;;
58760;SDS011;44529;47.464;19.014;2023-04-03T09:44:24;1.83;;;1.73;;
58760;SDS011;44529;47.464;19.014;2023-04-03T09:47:32;1.85;;;1.70;;
58760;SDS011;44529;47.464;19.014;2023-04-03T09:50:37;1.92;;;1.55;;
58760;SDS011;44529;47.464;19.014;2023-04-03T09:53:41;3.40;;;1.98;;
58760;SDS011;44529;47.464;19.014;2023-04-03T09:56:49;1.92;;;1.80;;
58760;SDS011;44529;47.464;19.014;2023-04-03T09:59:57;2.00;;;1.90;;
58760;SDS011;44529;47.464;19.014;2023-04-03T10:03:02;1.60;;;1.45;;
58760;SDS011;44529;47.464;19.014;2023-04-03T10:06:21;2.20;;;2.00;;
58760;SDS011;44529;47.464;19.014;2023-04-03T10:09:27;2.00;;;1.90;;
58760;SDS011;44529;47.464;19.014;2023-04-03T10:12:35;2.17;;;1.67;;
58760;SDS011;44529;47.464;19.014;2023-04-03T10:15:44;1.83;;;1.73;;
58760;SDS011;44529;47.464;19.014;2023-04-03T10:42:28;1.80;;;1.67;;
58760;SDS011;44529;47.464;19.014;2023-04-03T11:02:45;2.60;;;1.45;;
58760;SDS011;44529;47.464;19.014;2023-04-03T11:05:53;1.60;;;1.50;;
58760;SDS011;44529;47.464;19.014;2023-04-03T11:08:59;6.82;;;2.22;;
58760;SDS011;44529;47.464;19.014;2023-04-03T11:12:11;1.25;;;1.10;;
58760;SDS011;44529;47.464;19.014;2023-04-03T11:15:18;1.60;;;1.40;;
58760;SDS011;44529;47.464;19.014;2023-04-03T11:21:41;1.87;;;1.65;;
58760;SDS011;44529;47.464;19.014;2023-04-03T11:24:51;3.05;;;1.42;;
58760;SDS011;44529;47.464;19.014;2023-04-03T11:28:03;1.90;;;1.67;;
58760;SDS011;44529;47.464;19.014;2023-04-03T11:37:46;1.50;;;1.40;;
58760;SDS011;44529;47.464;19.014;2023-04-03T11:40:52;4.15;;;1.75;;
58760;SDS011;44529;47.464;19.014;2023-04-03T11:44:04;1.35;;;1.25;;
58760;SDS011;44529;47.464;19.014;2023-04-03T11:50:51;1.33;;;1.23;;
58760;SDS011;44529;47.464;19.014;2023-04-03T11:53:54;1.87;;;1.00;;
58760;SDS011;44529;47.464;19.014;2023-04-03T12:01:04;2.08;;;1.42;;
58760;SDS011;44529;47.464;19.014;2023-04-03T12:04:08;3.83;;;1.30;;
58760;SDS011;44529;47.464;19.014;2023-04-03T12:07:14;1.40;;;0.95;;
58760;SDS011;44529;47.464;19.014;2023-04-03T12:10:20;1.40;;;1.30;;
58760;SDS011;44529;47.464;19.014;2023-04-03T12:13:33;2.35;;;1.48;;
58760;SDS011;44529;47.464;19.014;2023-04-03T12:19:39;1.55;;;1.40;;
58760;SDS011;44529;47.464;19.014;2023-04-03T12:26:28;1.33;;;1.12;;
58760;SDS011;44529;47.464;19.014;2023-04-03T12:36:26;1.55;;;1.15;;
58760;SDS011;44529;47.464;19.014;2023-04-03T12:39:53;1.40;;;1.20;;
58760;SDS011;44529;47.464;19.014;2023-04-03T12:46:19;1.30;;;1.20;;
58760;SDS011;44529;47.464;19.014;2023-04-03T12:49:26;1.05;;;0.95;;
58760;SDS011;44529;47.464;19.014;2023-04-03T12:52:43;1.27;;;1.17;;
58760;SDS011;44529;47.464;19.014;2023-04-03T12:55:56;3.10;;;1.40;;
58760;SDS011;44529;47.464;19.014;2023-04-03T12:59:13;2.95;;;1.98;;
58760;SDS011;44529;47.464;19.014;2023-04-03T13:02:27;1.30;;;1.20;;
58760;SDS011;44529;47.464;19.014;2023-04-03T13:05:32;2.35;;;1.45;;
58760;SDS011;44529;47.464;19.014;2023-04-03T13:08:38;1.42;;;1.12;;
58760;SDS011;44529;47.464;19.014;2023-04-03T13:11:52;2.70;;;1.37;;
58760;SDS011;44529;47.464;19.014;2023-04-03T13:14:58;1.40;;;1.30;;
58760;SDS011;44529;47.464;19.014;2023-04-03T13:18:03;1.17;;;1.08;;
58760;SDS011;44529;47.464;19.014;2023-04-03T13:21:06;1.33;;;1.10;;
58760;SDS011;44529;47.464;19.014;2023-04-03T13:24:15;1.17;;;1.10;;
58760;SDS011;44529;47.464;19.014;2023-04-03T13:27:18;1.08;;;0.98;;
58760;SDS011;44529;47.464;19.014;2023-04-03T13:30:23;1.45;;;1.30;;
58760;SDS011;44529;47.464;19.014;2023-04-03T13:33:35;1.83;;;1.20;;
58760;SDS011;44529;47.464;19.014;2023-04-03T13:36:46;2.45;;;1.17;;
58760;SDS011;44529;47.464;19.014;2023-04-03T13:39:59;1.30;;;1.10;;
58760;SDS011;44529;47.464;19.014;2023-04-03T13:43:06;0.88;;;0.88;;
58760;SDS011;44529;47.464;19.014;2023-04-03T13:46:27;3.92;;;1.30;;
58760;SDS011;44529;47.464;19.014;2023-04-03T13:52:33;1.30;;;1.20;;
58760;SDS011;44529;47.464;19.014;2023-04-03T14:02:18;1.50;;;1.17;;
58760;SDS011;44529;47.464;19.014;2023-04-03T14:05:31;2.42;;;1.20;;
58760;SDS011;44529;47.464;19.014;2023-04-03T14:08:33;6.28;;;1.62;;
58760;SDS011;44529;47.464;19.014;2023-04-03T14:11:45;1.45;;;1.35;;
58760;SDS011;44529;47.464;19.014;2023-04-03T14:14:49;1.45;;;1.23;;
58760;SDS011;44529;47.464;19.014;2023-04-03T14:17:51;2.03;;;1.50;;
58760;SDS011;44529;47.464;19.014;2023-04-03T14:20:55;1.37;;;1.27;;
58760;SDS011;44529;47.464;19.014;2023-04-03T14:23:57;1.50;;;1.40;;
58760;SDS011;44529;47.464;19.014;2023-04-03T14:26:59;3.22;;;1.25;;
58760;SDS011;44529;47.464;19.014;2023-04-03T14:30:02;2.65;;;1.30;;
58760;SDS011;44529;47.464;19.014;2023-04-03T14:33:10;2.60;;;1.25;;
58760;SDS011;44529;47.464;19.014;2023-04-03T14:36:23;1.42;;;1.23;;
58760;SDS011;44529;47.464;19.014;2023-04-03T14:39:28;4.62;;;1.27;;
58760;SDS011;44529;47.464;19.014;2023-04-03T14:42:32;2.15;;;1.70;;
58760;SDS011;44529;47.464;19.014;2023-04-03T14:45:36;1.50;;;1.40;;
58760;SDS011;44529;47.464;19.014;2023-04-03T14:48:39;1.45;;;1.35;;
58760;SDS011;44529;47.464;19.014;2023-04-03T14:51:41;1.37;;;1.27;;
58760;SDS011;44529;47.464;19.014;2023-04-03T14:54:44;3.85;;;1.33;;
58760;SDS011;44529;47.464;19.014;2023-04-03T14:57:46;1.42;;;1.27;;
58760;SDS011;44529;47.464;19.014;2023-04-03T15:00:50;2.00;;;1.60;;
58760;SDS011;44529;47.464;19.014;2023-04-03T15:03:52;2.12;;;1.37;;
58760;SDS011;44529;47.464;19.014;2023-04-03T15:06:55;1.67;;;1.00;;
58760;SDS011;44529;47.464;19.014;2023-04-03T15:10:15;2.50;;;1.55;;
58760;SDS011;44529;47.464;19.014;2023-04-03T15:13:19;3.12;;;1.67;;
58760;SDS011;44529;47.464;19.014;2023-04-03T15:29:25;3.50;;;2.22;;
58760;SDS011;44529;47.464;19.014;2023-04-03T15:32:27;2.90;;;2.20;;
58760;SDS011;44529;47.464;19.014;2023-04-03T15:35:33;2.80;;;2.20;;
58760;SDS011;44529;47.464;19.014;2023-04-03T15:38:35;3.85;;;2.80;;
58760;SDS011;44529;47.464;19.014;2023-04-03T15:41:39;2.92;;;2.15;;
58760;SDS011;44529;47.464;19.014;2023-04-03T15:44:42;2.22;;;1.95;;
58760;SDS011;44529;47.464;19.014;2023-04-03T15:47:45;2.78;;;1.92;;
58760;SDS011;44529;47.464;19.014;2023-04-03T15:50:47;3.37;;;2.10;;
58760;SDS011;44529;47.464;19.014;2023-04-03T15:53:49;3.03;;;2.15;;
58760;SDS011;44529;47.464;19.014;2023-04-03T15:56:52;3.10;;;2.20;;
58760;SDS011;44529;47.464;19.014;2023-04-03T15:59:55;3.83;;;2.17;;
58760;SDS011;44529;47.464;19.014;2023-04-03T16:03:00;3.40;;;2.33;;
58760;SDS011;44529;47.464;19.014;2023-04-03T16:06:07;5.80;;;2.20;;
58760;SDS011;44529;47.464;19.014;2023-04-03T16:09:09;4.30;;;2.28;;
58760;SDS011;44529;47.464;19.014;2023-04-03T16:12:12;4.18;;;2.37;;
58760;SDS011;44529;47.464;19.014;2023-04-03T16:15:14;2.72;;;2.50;;
58760;SDS011;44529;47.464;19.014;2023-04-03T16:18:17;2.95;;;2.37;;
58760;SDS011;44529;47.464;19.014;2023-04-03T16:21:20;5.37;;;2.40;;
58760;SDS011;44529;47.464;19.014;2023-04-03T16:24:23;2.70;;;2.40;;
58760;SDS011;44529;47.464;19.014;2023-04-03T16:27:25;7.93;;;3.03;;
58760;SDS011;44529;47.464;19.014;2023-04-03T16:30:29;4.10;;;2.30;;
58760;SDS011;44529;47.464;19.014;2023-04-03T16:33:32;3.90;;;2.45;;
58760;SDS011;44529;47.464;19.014;2023-04-03T16:36:34;4.43;;;2.20;;
58760;SDS011;44529;47.464;19.014;2023-04-03T16:39:37;2.90;;;2.30;;
58760;SDS011;44529;47.464;19.014;2023-04-03T16:42:39;3.05;;;2.55;;
58760;SDS011;44529;47.464;19.014;2023-04-03T16:45:42;4.07;;;2.45;;
58760;SDS011;44529;47.464;19.014;2023-04-03T16:48:44;3.85;;;2.47;;
58760;SDS011;44529;47.464;19.014;2023-04-03T16:51:48;4.90;;;2.28;;
58760;SDS011;44529;47.464;19.014;2023-04-03T16:54:50;3.22;;;2.00;;
58760;SDS011;44529;47.464;19.014;2023-04-03T16:57:57;3.45;;;1.77;;
58760;SDS011;44529;47.464;19.014;2023-04-03T17:01:07;2.75;;;1.98;;
58760;SDS011;44529;47.464;19.014;2023-04-03T17:04:17;2.22;;;2.03;;
58760;SDS011;44529;47.464;19.014;2023-04-03T17:07:20;3.58;;;2.22;;
58760;SDS011;44529;47.464;19.014;2023-04-03T17:10:23;3.37;;;2.17;;
58760;SDS011;44529;47.464;19.014;2023-04-03T17:13:26;3.35;;;2.30;;
58760;SDS011;44529;47.464;19.014;2023-04-03T17:16:34;2.03;;;1.83;;
58760;SDS011;44529;47.464;19.014;2023-04-03T17:19:38;2.72;;;2.05;;
58760;SDS011;44529;47.464;19.014;2023-04-03T17:22:41;2.35;;;2.15;;
58760;SDS011;44529;47.464;19.014;2023-04-03T17:25:44;2.72;;;2.17;;
58760;SDS011;44529;47.464;19.014;2023-04-03T17:28:46;2.72;;;1.90;;
58760;SDS011;44529;47.464;19.014;2023-04-03T17:31:49;4.37;;;2.05;;
58760;SDS011;44529;47.464;19.014;2023-04-03T17:34:51;2.55;;;2.12;;
58760;SDS011;44529;47.464;19.014;2023-04-03T17:37:53;2.33;;;2.00;;
58760;SDS011;44529;47.464;19.014;2023-04-03T17:40:56;2.08;;;1.87;;
58760;SDS011;44529;47.464;19.014;2023-04-03T17:44:00;2.35;;;1.90;;
58760;SDS011;44529;47.464;19.014;2023-04-03T17:47:02;2.00;;;1.80;;
58760;SDS011;44529;47.464;19.014;2023-04-03T17:50:05;2.35;;;2.15;;
58760;SDS011;44529;47.464;19.014;2023-04-03T17:53:08;2.28;;;2.05;;
58760;SDS011;44529;47.464;19.014;2023-04-03T17:56:12;2.17;;;1.98;;
58760;SDS011;44529;47.464;19.014;2023-04-03T17:59:16;2.60;;;2.40;;
58760;SDS011;44529;47.464;19.014;2023-04-03T18:02:19;2.58;;;2.22;;
58760;SDS011;44529;47.464;19.014;2023-04-03T18:05:25;2.97;;;2.20;;
58760;SDS011;44529;47.464;19.014;2023-04-03T18:08:32;2.37;;;2.17;;
58760;SDS011;44529;47.464;19.014;2023-04-03T18:11:38;2.58;;;2.30;;
58760;SDS011;44529;47.464;19.014;2023-04-03T18:14:41;2.90;;;2.33;;
58760;SDS011;44529;47.464;19.014;2023-04-03T18:17:43;3.97;;;2.37;;
58760;SDS011;44529;47.464;19.014;2023-04-03T18:20:47;3.05;;;2.17;;
58760;SDS011;44529;47.464;19.014;2023-04-03T18:23:50;2.33;;;2.10;;
58760;SDS011;44529;47.464;19.014;2023-04-03T18:26:59;2.25;;;1.98;;
58760;SDS011;44529;47.464;19.014;2023-04-03T18:30:14;2.37;;;2.10;;
58760;SDS011;44529;47.464;19.014;2023-04-03T18:33:18;2.78;;;2.37;;
58760;SDS011;44529;47.464;19.014;2023-04-03T18:36:20;2.40;;;2.20;;
58760;SDS011;44529;47.464;19.014;2023-04-03T18:39:23;2.85;;;2.05;;
58760;SDS011;44529;47.464;19.014;2023-04-03T18:42:28;3.17;;;2.28;;
58760;SDS011;44529;47.464;19.014;2023-04-03T18:45:30;3.10;;;1.95;;
58760;SDS011;44529;47.464;19.014;2023-04-03T18:48:32;3.25;;;2.00;;
58760;SDS011;44529;47.464;19.014;2023-04-03T18:51:36;2.28;;;2.05;;
58760;SDS011;44529;47.464;19.014;2023-04-03T18:54:41;4.45;;;2.15;;
58760;SDS011;44529;47.464;19.014;2023-04-03T18:57:44;2.22;;;1.83;;
58760;SDS011;44529;47.464;19.014;2023-04-03T19:00:47;2.45;;;1.83;;
58760;SDS011;44529;47.464;19.014;2023-04-03T19:03:49;2.42;;;2.22;;
58760;SDS011;44529;47.464;19.014;2023-04-03T19:06:52;3.42;;;2.12;;
58760;SDS011;44529;47.464;19.014;2023-04-03T19:09:54;5.75;;;2.58;;
58760;SDS011;44529;47.464;19.014;2023-04-03T19:12:57;3.05;;;2.17;;
58760;SDS011;44529;47.464;19.014;2023-04-03T19:15:59;2.83;;;2.35;;
58760;SDS011;44529;47.464;19.014;2023-04-03T19:19:02;2.47;;;2.28;;
58760;SDS011;44529;47.464;19.014;2023-04-03T19:22:04;3.10;;;2.25;;
58760;SDS011;44529;47.464;19.014;2023-04-03T19:25:09;3.12;;;2.40;;
58760;SDS011;44529;47.464;19.014;2023-04-03T19:28:12;4.00;;;2.50;;
58760;SDS011;44529;47.464;19.014;2023-04-03T19:31:17;2.75;;;2.15;;
58760;SDS011;44529;47.464;19.014;2023-04-03T19:34:21;3.47;;;2.15;;
58760;SDS011;44529;47.464;19.014;2023-04-03T19:37:24;3.35;;;2.53;;
58760;SDS011;44529;47.464;19.014;2023-04-03T19:40:28;4.62;;;2.30;;
58760;SDS011;44529;47.464;19.014;2023-04-03T19:43:30;2.42;;;1.98;;
58760;SDS011;44529;47.464;19.014;2023-04-03T19:46:33;3.20;;;2.15;;
58760;SDS011;44529;47.464;19.014;2023-04-03T19:49:36;2.78;;;2.33;;
58760;SDS011;44529;47.464;19.014;2023-04-03T19:52:39;2.97;;;2.30;;
58760;SDS011;44529;47.464;19.014;2023-04-03T19:55:41;4.18;;;2.70;;
58760;SDS011;44529;47.464;19.014;2023-04-03T19:58:46;3.67;;;2.45;;
58760;SDS011;44529;47.464;19.014;2023-04-03T20:01:55;3.62;;;2.30;;
58760;SDS011;44529;47.464;19.014;2023-04-03T20:04:58;3.83;;;2.42;;
58760;SDS011;44529;47.464;19.014;2023-04-03T20:08:00;3.85;;;2.70;;